sensor_id;sensor_type;location;lat;lon;timestamp;P1;durP1;ratioP1;P2;durP2;ratioP2
71937;SDS011;59810;48.800;9.086;2023-07-02T00:01:40;10.00;;;3.50;;
71937;SDS011;59810;48.800;9.086;2023-07-02T00:04:05;6.90;;;3.27;;
71937;SDS011;59810;48.800;9.086;2023-07-02T00:06:34;8.18;;;3.67;;
71937;SDS011;59810;48.800;9.086;2023-07-02T00:09:08;7.50;;;3.50;;
71937;SDS011;59810;48.800;9.086;2023-07-02T00:11:36;6.78;;;3.38;;
71937;SDS011;59810;48.800;9.086;2023-07-02T00:14:02;8.43;;;3.40;;
71937;SDS011;59810;48.800;9.086;2023-07-02T00:16:28;9.37;;;4.10;;
71937;SDS011;59810;48.800;9.086;2023-07-02T00:18:53;7.90;;;3.47;;
71937;SDS011;59810;48.800;9.086;2023-07-02T00:21:19;7.03;;;3.60;;
71937;SDS011;59810;48.800;9.086;2023-07-02T00:23:45;7.35;;;3.55;;
71937;SDS011;59810;48.800;9.086;2023-07-02T00:26:10;8.40;;;3.67;;
71937;SDS011;59810;48.800;9.086;2023-07-02T00:28:36;9.27;;;3.70;;
71937;SDS011;59810;48.800;9.086;2023-07-02T00:31:01;7.73;;;3.23;;
71937;SDS011;59810;48.800;9.086;2023-07-02T00:33:27;8.68;;;3.33;;
71937;SDS011;59810;48.800;9.086;2023-07-02T00:35:53;7.05;;;3.05;;
71937;SDS011;59810;48.800;9.086;2023-07-02T00:38:19;6.73;;;3.63;;
71937;SDS011;59810;48.800;9.086;2023-07-02T00:40:45;7.13;;;3.10;;
71937;SDS011;59810;48.800;9.086;2023-07-02T00:43:12;6.55;;;3.22;;
71937;SDS011;59810;48.800;9.086;2023-07-02T00:45:40;6.35;;;3.30;;
71937;SDS011;59810;48.800;9.086;2023-07-02T00:48:06;8.30;;;3.27;;
71937;SDS011;59810;48.800;9.086;2023-07-02T00:50:32;6.60;;;3.05;;
71937;SDS011;59810;48.800;9.086;2023-07-02T00:52:57;6.80;;;2.97;;
71937;SDS011;59810;48.800;9.086;2023-07-02T00:55:23;7.13;;;2.97;;
71937;SDS011;59810;48.800;9.086;2023-07-02T00:57:48;7.40;;;3.67;;
71937;SDS011;59810;48.800;9.086;2023-07-02T01:00:14;11.52;;;2.97;;
71937;SDS011;59810;48.800;9.086;2023-07-02T01:02:40;5.80;;;2.75;;
71937;SDS011;59810;48.800;9.086;2023-07-02T01:05:13;6.45;;;2.97;;
71937;SDS011;59810;48.800;9.086;2023-07-02T01:07:41;6.77;;;3.00;;
71937;SDS011;59810;48.800;9.086;2023-07-02T01:10:07;7.07;;;2.88;;
71937;SDS011;59810;48.800;9.086;2023-07-02T01:12:33;7.22;;;3.38;;
71937;SDS011;59810;48.800;9.086;2023-07-02T01:15:00;6.60;;;2.70;;
71937;SDS011;59810;48.800;9.086;2023-07-02T01:17:30;5.88;;;3.05;;
71937;SDS011;59810;48.800;9.086;2023-07-02T01:20:05;7.90;;;3.10;;
71937;SDS011;59810;48.800;9.086;2023-07-02T01:22:33;7.35;;;3.60;;
71937;SDS011;59810;48.800;9.086;2023-07-02T01:24:58;6.80;;;3.00;;
71937;SDS011;59810;48.800;9.086;2023-07-02T01:27:24;7.53;;;2.80;;
71937;SDS011;59810;48.800;9.086;2023-07-02T01:29:55;6.05;;;2.78;;
71937;SDS011;59810;48.800;9.086;2023-07-02T01:32:21;6.60;;;2.47;;
71937;SDS011;59810;48.800;9.086;2023-07-02T01:34:47;7.53;;;2.50;;
71937;SDS011;59810;48.800;9.086;2023-07-02T01:37:18;6.18;;;2.70;;
71937;SDS011;59810;48.800;9.086;2023-07-02T01:39:43;6.60;;;2.60;;
71937;SDS011;59810;48.800;9.086;2023-07-02T01:44:37;8.32;;;2.80;;
71937;SDS011;59810;48.800;9.086;2023-07-02T01:47:03;6.43;;;2.70;;
71937;SDS011;59810;48.800;9.086;2023-07-02T01:49:30;6.47;;;2.65;;
71937;SDS011;59810;48.800;9.086;2023-07-02T01:51:55;7.07;;;2.85;;
71937;SDS011;59810;48.800;9.086;2023-07-02T01:54:26;6.35;;;2.80;;
71937;SDS011;59810;48.800;9.086;2023-07-02T01:56:55;5.60;;;2.40;;
71937;SDS011;59810;48.800;9.086;2023-07-02T01:59:20;6.32;;;3.10;;
71937;SDS011;59810;48.800;9.086;2023-07-02T02:01:46;7.07;;;2.67;;
71937;SDS011;59810;48.800;9.086;2023-07-02T02:04:12;5.82;;;2.60;;
71937;SDS011;59810;48.800;9.086;2023-07-02T02:06:38;8.40;;;2.83;;
71937;SDS011;59810;48.800;9.086;2023-07-02T02:09:07;6.45;;;2.90;;
71937;SDS011;59810;48.800;9.086;2023-07-02T02:11:37;5.82;;;2.88;;
71937;SDS011;59810;48.800;9.086;2023-07-02T02:14:04;5.70;;;2.70;;
71937;SDS011;59810;48.800;9.086;2023-07-02T02:16:30;7.97;;;3.08;;
71937;SDS011;59810;48.800;9.086;2023-07-02T02:18:55;7.67;;;3.07;;
71937;SDS011;59810;48.800;9.086;2023-07-02T02:21:21;5.73;;;2.80;;
71937;SDS011;59810;48.800;9.086;2023-07-02T02:23:47;7.30;;;2.65;;
71937;SDS011;59810;48.800;9.086;2023-07-02T02:26:13;7.35;;;3.25;;
71937;SDS011;59810;48.800;9.086;2023-07-02T02:28:39;5.57;;;2.63;;
71937;SDS011;59810;48.800;9.086;2023-07-02T02:31:04;6.75;;;2.75;;
71937;SDS011;59810;48.800;9.086;2023-07-02T02:33:33;7.73;;;3.37;;
71937;SDS011;59810;48.800;9.086;2023-07-02T02:36:00;6.65;;;2.60;;
71937;SDS011;59810;48.800;9.086;2023-07-02T02:38:26;6.70;;;2.70;;
71937;SDS011;59810;48.800;9.086;2023-07-02T02:40:51;6.97;;;2.57;;
71937;SDS011;59810;48.800;9.086;2023-07-02T02:43:16;7.23;;;2.90;;
71937;SDS011;59810;48.800;9.086;2023-07-02T02:45:45;7.60;;;2.88;;
71937;SDS011;59810;48.800;9.086;2023-07-02T02:48:15;7.28;;;2.75;;
71937;SDS011;59810;48.800;9.086;2023-07-02T02:50:41;6.17;;;2.40;;
71937;SDS011;59810;48.800;9.086;2023-07-02T02:53:08;5.22;;;2.58;;
71937;SDS011;59810;48.800;9.086;2023-07-02T02:55:33;5.83;;;2.43;;
71937;SDS011;59810;48.800;9.086;2023-07-02T02:57:59;9.00;;;2.30;;
71937;SDS011;59810;48.800;9.086;2023-07-02T03:00:24;5.43;;;2.63;;
71937;SDS011;59810;48.800;9.086;2023-07-02T03:02:52;7.68;;;2.40;;
71937;SDS011;59810;48.800;9.086;2023-07-02T03:05:17;7.80;;;2.50;;
71937;SDS011;59810;48.800;9.086;2023-07-02T03:07:43;5.90;;;2.60;;
71937;SDS011;59810;48.800;9.086;2023-07-02T03:10:08;7.53;;;2.60;;
71937;SDS011;59810;48.800;9.086;2023-07-02T03:12:34;8.37;;;2.40;;
71937;SDS011;59810;48.800;9.086;2023-07-02T03:15:02;7.00;;;2.40;;
71937;SDS011;59810;48.800;9.086;2023-07-02T03:17:27;5.70;;;2.28;;
71937;SDS011;59810;48.800;9.086;2023-07-02T03:19:53;8.43;;;2.87;;
71937;SDS011;59810;48.800;9.086;2023-07-02T03:22:18;8.50;;;2.70;;
71937;SDS011;59810;48.800;9.086;2023-07-02T03:24:43;6.20;;;2.63;;
71937;SDS011;59810;48.800;9.086;2023-07-02T03:27:09;7.33;;;2.80;;
71937;SDS011;59810;48.800;9.086;2023-07-02T03:29:36;9.10;;;3.05;;
71937;SDS011;59810;48.800;9.086;2023-07-02T03:32:03;7.13;;;2.88;;
71937;SDS011;59810;48.800;9.086;2023-07-02T03:34:34;8.13;;;3.07;;
71937;SDS011;59810;48.800;9.086;2023-07-02T03:36:59;8.23;;;2.63;;
71937;SDS011;59810;48.800;9.086;2023-07-02T03:39:27;7.57;;;3.23;;
71937;SDS011;59810;48.800;9.086;2023-07-02T03:41:52;6.20;;;2.72;;
71937;SDS011;59810;48.800;9.086;2023-07-02T03:44:18;8.13;;;2.87;;
71937;SDS011;59810;48.800;9.086;2023-07-02T03:49:12;8.00;;;2.73;;
71937;SDS011;59810;48.800;9.086;2023-07-02T03:51:37;7.00;;;2.78;;
71937;SDS011;59810;48.800;9.086;2023-07-02T03:54:03;6.60;;;3.30;;
71937;SDS011;59810;48.800;9.086;2023-07-02T03:56:29;6.10;;;2.60;;
71937;SDS011;59810;48.800;9.086;2023-07-02T03:58:54;7.13;;;2.70;;
71937;SDS011;59810;48.800;9.086;2023-07-02T04:01:20;6.20;;;2.60;;
71937;SDS011;59810;48.800;9.086;2023-07-02T04:03:48;8.77;;;2.80;;
71937;SDS011;59810;48.800;9.086;2023-07-02T04:06:15;10.40;;;2.58;;
71937;SDS011;59810;48.800;9.086;2023-07-02T04:08:40;6.65;;;2.75;;
71937;SDS011;59810;48.800;9.086;2023-07-02T04:11:06;8.50;;;3.00;;
71937;SDS011;59810;48.800;9.086;2023-07-02T04:13:31;8.67;;;2.90;;
71937;SDS011;59810;48.800;9.086;2023-07-02T04:15:57;8.40;;;2.90;;
71937;SDS011;59810;48.800;9.086;2023-07-02T04:18:22;7.63;;;3.20;;
71937;SDS011;59810;48.800;9.086;2023-07-02T04:20:47;7.00;;;2.70;;
71937;SDS011;59810;48.800;9.086;2023-07-02T04:23:13;9.57;;;2.50;;
71937;SDS011;59810;48.800;9.086;2023-07-02T04:25:38;7.70;;;2.87;;
71937;SDS011;59810;48.800;9.086;2023-07-02T04:28:03;9.00;;;2.83;;
71937;SDS011;59810;48.800;9.086;2023-07-02T04:30:31;5.73;;;2.50;;
71937;SDS011;59810;48.800;9.086;2023-07-02T04:32:59;8.13;;;3.17;;
71937;SDS011;59810;48.800;9.086;2023-07-02T04:35:24;9.43;;;3.17;;
71937;SDS011;59810;48.800;9.086;2023-07-02T04:37:49;8.13;;;2.90;;
71937;SDS011;59810;48.800;9.086;2023-07-02T04:40:15;10.50;;;2.70;;
71937;SDS011;59810;48.800;9.086;2023-07-02T04:42:41;8.50;;;2.93;;
71937;SDS011;59810;48.800;9.086;2023-07-02T04:45:12;11.70;;;4.20;;
71937;SDS011;59810;48.800;9.086;2023-07-02T04:47:44;9.68;;;2.88;;
71937;SDS011;59810;48.800;9.086;2023-07-02T04:50:10;8.15;;;2.90;;
71937;SDS011;59810;48.800;9.086;2023-07-02T04:52:36;7.00;;;2.88;;
71937;SDS011;59810;48.800;9.086;2023-07-02T04:55:02;5.63;;;2.20;;
71937;SDS011;59810;48.800;9.086;2023-07-02T04:57:28;6.35;;;2.45;;
71937;SDS011;59810;48.800;9.086;2023-07-02T04:59:53;6.77;;;2.73;;
71937;SDS011;59810;48.800;9.086;2023-07-02T05:02:19;7.45;;;2.38;;
71937;SDS011;59810;48.800;9.086;2023-07-02T05:04:48;6.33;;;2.47;;
71937;SDS011;59810;48.800;9.086;2023-07-02T05:07:13;6.05;;;2.30;;
71937;SDS011;59810;48.800;9.086;2023-07-02T05:09:39;6.70;;;2.63;;
71937;SDS011;59810;48.800;9.086;2023-07-02T05:12:04;6.97;;;2.87;;
71937;SDS011;59810;48.800;9.086;2023-07-02T05:14:33;5.50;;;2.40;;
71937;SDS011;59810;48.800;9.086;2023-07-02T05:16:58;7.77;;;2.83;;
71937;SDS011;59810;48.800;9.086;2023-07-02T05:19:26;6.78;;;2.80;;
71937;SDS011;59810;48.800;9.086;2023-07-02T05:21:51;7.50;;;2.73;;
71937;SDS011;59810;48.800;9.086;2023-07-02T05:24:17;9.45;;;2.67;;
71937;SDS011;59810;48.800;9.086;2023-07-02T05:26:42;8.57;;;2.70;;
71937;SDS011;59810;48.800;9.086;2023-07-02T05:29:07;8.67;;;2.70;;
71937;SDS011;59810;48.800;9.086;2023-07-02T05:31:33;8.17;;;3.30;;
71937;SDS011;59810;48.800;9.086;2023-07-02T05:33:59;10.27;;;2.60;;
71937;SDS011;59810;48.800;9.086;2023-07-02T05:36:26;7.55;;;2.58;;
71937;SDS011;59810;48.800;9.086;2023-07-02T05:38:52;6.87;;;2.80;;
71937;SDS011;59810;48.800;9.086;2023-07-02T05:41:18;10.13;;;3.00;;
71937;SDS011;59810;48.800;9.086;2023-07-02T05:43:44;8.38;;;2.88;;
71937;SDS011;59810;48.800;9.086;2023-07-02T05:46:12;9.32;;;2.78;;
71937;SDS011;59810;48.800;9.086;2023-07-02T05:48:39;11.82;;;3.22;;
71937;SDS011;59810;48.800;9.086;2023-07-02T05:51:05;10.77;;;3.03;;
71937;SDS011;59810;48.800;9.086;2023-07-02T05:53:30;9.68;;;3.00;;
71937;SDS011;59810;48.800;9.086;2023-07-02T05:55:56;7.70;;;3.13;;
71937;SDS011;59810;48.800;9.086;2023-07-02T05:58:21;7.97;;;3.50;;
71937;SDS011;59810;48.800;9.086;2023-07-02T06:00:46;8.87;;;3.50;;
71937;SDS011;59810;48.800;9.086;2023-07-02T06:03:20;9.40;;;3.38;;
71937;SDS011;59810;48.800;9.086;2023-07-02T06:05:46;9.35;;;3.70;;
71937;SDS011;59810;48.800;9.086;2023-07-02T06:08:13;8.93;;;3.45;;
71937;SDS011;59810;48.800;9.086;2023-07-02T06:10:38;11.20;;;3.90;;
71937;SDS011;59810;48.800;9.086;2023-07-02T06:13:03;8.77;;;3.77;;
71937;SDS011;59810;48.800;9.086;2023-07-02T06:15:29;10.07;;;4.00;;
71937;SDS011;59810;48.800;9.086;2023-07-02T06:17:57;12.95;;;4.90;;
71937;SDS011;59810;48.800;9.086;2023-07-02T06:20:22;11.57;;;3.97;;
71937;SDS011;59810;48.800;9.086;2023-07-02T06:22:47;12.33;;;4.20;;
71937;SDS011;59810;48.800;9.086;2023-07-02T06:25:13;13.13;;;4.57;;
71937;SDS011;59810;48.800;9.086;2023-07-02T06:27:38;9.63;;;3.97;;
71937;SDS011;59810;48.800;9.086;2023-07-02T06:30:04;13.10;;;4.20;;
71937;SDS011;59810;48.800;9.086;2023-07-02T06:32:32;14.25;;;4.60;;
71937;SDS011;59810;48.800;9.086;2023-07-02T06:34:57;14.37;;;4.97;;
71937;SDS011;59810;48.800;9.086;2023-07-02T06:37:22;16.20;;;5.17;;
71937;SDS011;59810;48.800;9.086;2023-07-02T06:39:50;13.63;;;5.03;;
71937;SDS011;59810;48.800;9.086;2023-07-02T06:42:18;13.75;;;4.75;;
71937;SDS011;59810;48.800;9.086;2023-07-02T06:44:48;15.98;;;5.18;;
71937;SDS011;59810;48.800;9.086;2023-07-02T06:47:13;15.05;;;5.05;;
71937;SDS011;59810;48.800;9.086;2023-07-02T06:49:39;13.77;;;4.97;;
71937;SDS011;59810;48.800;9.086;2023-07-02T06:52:04;15.87;;;5.40;;
71937;SDS011;59810;48.800;9.086;2023-07-02T06:54:29;13.87;;;5.27;;
71937;SDS011;59810;48.800;9.086;2023-07-02T06:56:55;11.60;;;5.13;;
71937;SDS011;59810;48.800;9.086;2023-07-02T06:59:20;14.37;;;5.90;;
71937;SDS011;59810;48.800;9.086;2023-07-02T07:01:47;11.38;;;5.00;;
71937;SDS011;59810;48.800;9.086;2023-07-02T07:04:12;12.05;;;4.93;;
71937;SDS011;59810;48.800;9.086;2023-07-02T07:06:43;15.83;;;5.80;;
71937;SDS011;59810;48.800;9.086;2023-07-02T07:09:08;15.75;;;5.97;;
71937;SDS011;59810;48.800;9.086;2023-07-02T07:11:34;13.80;;;5.90;;
71937;SDS011;59810;48.800;9.086;2023-07-02T07:14:06;15.48;;;6.15;;
71937;SDS011;59810;48.800;9.086;2023-07-02T07:16:31;18.20;;;6.00;;
71937;SDS011;59810;48.800;9.086;2023-07-02T07:18:58;18.03;;;7.20;;
71937;SDS011;59810;48.800;9.086;2023-07-02T07:21:26;18.55;;;7.05;;
71937;SDS011;59810;48.800;9.086;2023-07-02T07:23:51;18.80;;;7.10;;
71937;SDS011;59810;48.800;9.086;2023-07-02T07:26:17;17.53;;;6.93;;
71937;SDS011;59810;48.800;9.086;2023-07-02T07:28:45;16.05;;;6.28;;
71937;SDS011;59810;48.800;9.086;2023-07-02T07:31:11;17.63;;;6.77;;
71937;SDS011;59810;48.800;9.086;2023-07-02T07:33:36;18.42;;;7.13;;
71937;SDS011;59810;48.800;9.086;2023-07-02T07:36:04;18.10;;;7.20;;
71937;SDS011;59810;48.800;9.086;2023-07-02T07:38:29;16.65;;;7.70;;
71937;SDS011;59810;48.800;9.086;2023-07-02T07:40:57;19.43;;;6.53;;
71937;SDS011;59810;48.800;9.086;2023-07-02T07:43:22;21.55;;;8.07;;
71937;SDS011;59810;48.800;9.086;2023-07-02T07:45:47;18.63;;;7.80;;
71937;SDS011;59810;48.800;9.086;2023-07-02T07:48:13;18.80;;;8.13;;
71937;SDS011;59810;48.800;9.086;2023-07-02T07:50:38;18.80;;;8.17;;
71937;SDS011;59810;48.800;9.086;2023-07-02T07:53:03;17.50;;;7.87;;
71937;SDS011;59810;48.800;9.086;2023-07-02T07:55:29;19.13;;;7.27;;
71937;SDS011;59810;48.800;9.086;2023-07-02T07:57:54;17.80;;;7.13;;
71937;SDS011;59810;48.800;9.086;2023-07-02T08:00:19;21.57;;;7.90;;
71937;SDS011;59810;48.800;9.086;2023-07-02T08:02:49;21.33;;;8.50;;
71937;SDS011;59810;48.800;9.086;2023-07-02T08:05:15;20.83;;;8.57;;
71937;SDS011;59810;48.800;9.086;2023-07-02T08:07:41;19.50;;;8.07;;
71937;SDS011;59810;48.800;9.086;2023-07-02T08:10:06;20.25;;;8.18;;
71937;SDS011;59810;48.800;9.086;2023-07-02T08:12:33;17.83;;;7.73;;
71937;SDS011;59810;48.800;9.086;2023-07-02T08:15:03;19.83;;;8.45;;
71937;SDS011;59810;48.800;9.086;2023-07-02T08:17:29;19.27;;;7.75;;
71937;SDS011;59810;48.800;9.086;2023-07-02T08:19:58;17.70;;;7.78;;
71937;SDS011;59810;48.800;9.086;2023-07-02T08:22:23;19.40;;;8.00;;
71937;SDS011;59810;48.800;9.086;2023-07-02T08:24:51;19.08;;;7.90;;
71937;SDS011;59810;48.800;9.086;2023-07-02T08:27:16;18.50;;;7.33;;
71937;SDS011;59810;48.800;9.086;2023-07-02T08:29:48;18.60;;;7.88;;
71937;SDS011;59810;48.800;9.086;2023-07-02T08:32:13;19.45;;;7.80;;
71937;SDS011;59810;48.800;9.086;2023-07-02T08:34:39;22.20;;;7.53;;
71937;SDS011;59810;48.800;9.086;2023-07-02T08:37:05;16.70;;;7.25;;
71937;SDS011;59810;48.800;9.086;2023-07-02T08:39:30;19.27;;;7.97;;
71937;SDS011;59810;48.800;9.086;2023-07-02T08:41:56;16.70;;;6.97;;
71937;SDS011;59810;48.800;9.086;2023-07-02T08:44:21;16.73;;;7.43;;
71937;SDS011;59810;48.800;9.086;2023-07-02T08:46:47;18.23;;;7.60;;
71937;SDS011;59810;48.800;9.086;2023-07-02T08:49:15;19.30;;;7.43;;
71937;SDS011;59810;48.800;9.086;2023-07-02T08:51:42;18.40;;;7.15;;
71937;SDS011;59810;48.800;9.086;2023-07-02T08:54:09;17.25;;;6.93;;
71937;SDS011;59810;48.800;9.086;2023-07-02T08:56:35;17.27;;;6.83;;
71937;SDS011;59810;48.800;9.086;2023-07-02T08:59:00;19.37;;;7.77;;
71937;SDS011;59810;48.800;9.086;2023-07-02T09:01:25;15.73;;;7.00;;
71937;SDS011;59810;48.800;9.086;2023-07-02T09:03:52;15.82;;;7.00;;
71937;SDS011;59810;48.800;9.086;2023-07-02T09:06:24;19.73;;;7.18;;
71937;SDS011;59810;48.800;9.086;2023-07-02T09:08:52;16.55;;;7.22;;
71937;SDS011;59810;48.800;9.086;2023-07-02T09:11:17;18.50;;;7.60;;
71937;SDS011;59810;48.800;9.086;2023-07-02T09:13:49;14.50;;;6.68;;
71937;SDS011;59810;48.800;9.086;2023-07-02T09:19:11;16.30;;;7.13;;
71937;SDS011;59810;48.800;9.086;2023-07-02T09:21:47;20.48;;;7.03;;
71937;SDS011;59810;48.800;9.086;2023-07-02T09:24:20;17.98;;;8.27;;
71937;SDS011;59810;48.800;9.086;2023-07-02T09:26:54;17.48;;;7.22;;
71937;SDS011;59810;48.800;9.086;2023-07-02T09:29:28;18.80;;;7.17;;
71937;SDS011;59810;48.800;9.086;2023-07-02T09:31:57;16.77;;;7.05;;
71937;SDS011;59810;48.800;9.086;2023-07-02T09:34:33;20.60;;;7.40;;
71937;SDS011;59810;48.800;9.086;2023-07-02T09:36:59;21.73;;;7.53;;
71937;SDS011;59810;48.800;9.086;2023-07-02T09:39:29;16.27;;;7.07;;
71937;SDS011;59810;48.800;9.086;2023-07-02T09:41:56;14.60;;;6.47;;
71937;SDS011;59810;48.800;9.086;2023-07-02T09:44:32;18.10;;;7.60;;
71937;SDS011;59810;48.800;9.086;2023-07-02T09:47:08;16.35;;;7.70;;
71937;SDS011;59810;48.800;9.086;2023-07-02T09:49:35;18.65;;;7.97;;
71937;SDS011;59810;48.800;9.086;2023-07-02T09:52:09;18.33;;;7.95;;
71937;SDS011;59810;48.800;9.086;2023-07-02T09:54:36;18.33;;;8.77;;
71937;SDS011;59810;48.800;9.086;2023-07-02T09:57:04;18.50;;;8.00;;
71937;SDS011;59810;48.800;9.086;2023-07-02T09:59:38;17.27;;;7.75;;
71937;SDS011;59810;48.800;9.086;2023-07-02T10:02:08;17.40;;;8.10;;
71937;SDS011;59810;48.800;9.086;2023-07-02T10:04:46;17.30;;;8.40;;
71937;SDS011;59810;48.800;9.086;2023-07-02T10:07:13;19.20;;;7.67;;
71937;SDS011;59810;48.800;9.086;2023-07-02T10:09:51;16.67;;;7.88;;
71937;SDS011;59810;48.800;9.086;2023-07-02T10:12:18;16.73;;;7.93;;
71937;SDS011;59810;48.800;9.086;2023-07-02T10:14:46;18.50;;;7.80;;
71937;SDS011;59810;48.800;9.086;2023-07-02T10:17:25;18.58;;;8.65;;
71937;SDS011;59810;48.800;9.086;2023-07-02T10:20:00;18.47;;;7.77;;
71937;SDS011;59810;48.800;9.086;2023-07-02T10:22:29;17.48;;;8.02;;
71937;SDS011;59810;48.800;9.086;2023-07-02T10:25:07;16.55;;;7.43;;
71937;SDS011;59810;48.800;9.086;2023-07-02T10:27:33;16.27;;;8.43;;
71937;SDS011;59810;48.800;9.086;2023-07-02T10:30:00;15.05;;;7.50;;
71937;SDS011;59810;48.800;9.086;2023-07-02T10:32:26;17.67;;;8.03;;
71937;SDS011;59810;48.800;9.086;2023-07-02T10:34:55;15.80;;;7.95;;
71937;SDS011;59810;48.800;9.086;2023-07-02T10:37:21;18.92;;;8.05;;
71937;SDS011;59810;48.800;9.086;2023-07-02T10:39:46;17.37;;;8.57;;
71937;SDS011;59810;48.800;9.086;2023-07-02T10:42:12;20.40;;;9.18;;
71937;SDS011;59810;48.800;9.086;2023-07-02T10:44:46;22.52;;;8.40;;
71937;SDS011;59810;48.800;9.086;2023-07-02T10:47:16;15.80;;;8.03;;
71937;SDS011;59810;48.800;9.086;2023-07-02T10:49:42;17.42;;;8.90;;
71937;SDS011;59810;48.800;9.086;2023-07-02T10:52:07;17.37;;;7.23;;
71937;SDS011;59810;48.800;9.086;2023-07-02T10:54:39;16.83;;;8.17;;
71937;SDS011;59810;48.800;9.086;2023-07-02T10:57:09;17.95;;;8.10;;
71937;SDS011;59810;48.800;9.086;2023-07-02T10:59:36;19.73;;;7.88;;
71937;SDS011;59810;48.800;9.086;2023-07-02T11:02:02;16.80;;;7.57;;
71937;SDS011;59810;48.800;9.086;2023-07-02T11:04:29;18.75;;;7.82;;
71937;SDS011;59810;48.800;9.086;2023-07-02T11:06:55;17.20;;;8.40;;
71937;SDS011;59810;48.800;9.086;2023-07-02T11:09:21;18.20;;;8.83;;
71937;SDS011;59810;48.800;9.086;2023-07-02T11:11:54;15.73;;;7.65;;
71937;SDS011;59810;48.800;9.086;2023-07-02T11:17:01;18.55;;;8.55;;
71937;SDS011;59810;48.800;9.086;2023-07-02T11:19:28;16.13;;;8.32;;
71937;SDS011;59810;48.800;9.086;2023-07-02T11:21:54;16.70;;;8.40;;
71937;SDS011;59810;48.800;9.086;2023-07-02T11:24:31;20.92;;;8.20;;
71937;SDS011;59810;48.800;9.086;2023-07-02T11:27:01;16.15;;;7.85;;
71937;SDS011;59810;48.800;9.086;2023-07-02T11:29:28;17.23;;;7.72;;
71937;SDS011;59810;48.800;9.086;2023-07-02T11:32:09;16.60;;;7.90;;
71937;SDS011;59810;48.800;9.086;2023-07-02T11:34:39;20.67;;;8.52;;
71937;SDS011;59810;48.800;9.086;2023-07-02T11:37:04;16.65;;;8.32;;
71937;SDS011;59810;48.800;9.086;2023-07-02T11:39:32;16.83;;;8.30;;
71937;SDS011;59810;48.800;9.086;2023-07-02T11:41:57;20.63;;;8.60;;
71937;SDS011;59810;48.800;9.086;2023-07-02T11:44:23;18.85;;;8.70;;
71937;SDS011;59810;48.800;9.086;2023-07-02T11:46:49;18.63;;;8.30;;
71937;SDS011;59810;48.800;9.086;2023-07-02T11:49:15;20.33;;;8.88;;
71937;SDS011;59810;48.800;9.086;2023-07-02T11:51:43;18.48;;;8.73;;
71937;SDS011;59810;48.800;9.086;2023-07-02T11:54:13;18.23;;;9.07;;
71937;SDS011;59810;48.800;9.086;2023-07-02T11:56:39;17.83;;;7.90;;
71937;SDS011;59810;48.800;9.086;2023-07-02T11:59:07;16.67;;;8.80;;
71937;SDS011;59810;48.800;9.086;2023-07-02T12:01:32;16.37;;;8.43;;
71937;SDS011;59810;48.800;9.086;2023-07-02T12:03:57;17.93;;;8.70;;
71937;SDS011;59810;48.800;9.086;2023-07-02T12:06:23;18.57;;;8.70;;
71937;SDS011;59810;48.800;9.086;2023-07-02T12:08:49;17.50;;;8.40;;
71937;SDS011;59810;48.800;9.086;2023-07-02T12:11:14;17.80;;;9.20;;
71937;SDS011;59810;48.800;9.086;2023-07-02T12:13:40;19.00;;;8.90;;
71937;SDS011;59810;48.800;9.086;2023-07-02T12:16:06;16.97;;;8.47;;
71937;SDS011;59810;48.800;9.086;2023-07-02T12:18:31;19.50;;;8.70;;
71937;SDS011;59810;48.800;9.086;2023-07-02T12:20:56;19.97;;;9.07;;
71937;SDS011;59810;48.800;9.086;2023-07-02T12:23:24;16.93;;;8.83;;
71937;SDS011;59810;48.800;9.086;2023-07-02T12:25:50;18.48;;;8.48;;
71937;SDS011;59810;48.800;9.086;2023-07-02T12:28:15;17.37;;;8.40;;
71937;SDS011;59810;48.800;9.086;2023-07-02T12:30:41;18.27;;;8.43;;
71937;SDS011;59810;48.800;9.086;2023-07-02T12:33:06;18.57;;;8.83;;
71937;SDS011;59810;48.800;9.086;2023-07-02T12:35:31;18.67;;;8.60;;
71937;SDS011;59810;48.800;9.086;2023-07-02T12:37:57;17.20;;;8.27;;
71937;SDS011;59810;48.800;9.086;2023-07-02T12:40:22;17.47;;;8.43;;
71937;SDS011;59810;48.800;9.086;2023-07-02T12:42:48;20.87;;;9.30;;
71937;SDS011;59810;48.800;9.086;2023-07-02T12:45:16;17.05;;;8.23;;
71937;SDS011;59810;48.800;9.086;2023-07-02T12:47:42;18.10;;;9.43;;
71937;SDS011;59810;48.800;9.086;2023-07-02T12:50:08;19.33;;;8.70;;
71937;SDS011;59810;48.800;9.086;2023-07-02T12:52:35;18.30;;;8.68;;
71937;SDS011;59810;48.800;9.086;2023-07-02T12:55:03;17.92;;;9.35;;
71937;SDS011;59810;48.800;9.086;2023-07-02T12:57:29;19.53;;;10.00;;
71937;SDS011;59810;48.800;9.086;2023-07-02T12:59:55;15.93;;;8.47;;
71937;SDS011;59810;48.800;9.086;2023-07-02T13:02:21;17.23;;;9.13;;
71937;SDS011;59810;48.800;9.086;2023-07-02T13:04:47;16.08;;;7.72;;
71937;SDS011;59810;48.800;9.086;2023-07-02T13:07:13;18.98;;;9.00;;
71937;SDS011;59810;48.800;9.086;2023-07-02T13:09:38;18.07;;;9.30;;
71937;SDS011;59810;48.800;9.086;2023-07-02T13:12:04;17.03;;;8.80;;
71937;SDS011;59810;48.800;9.086;2023-07-02T13:14:30;18.40;;;9.43;;
71937;SDS011;59810;48.800;9.086;2023-07-02T13:16:55;19.53;;;9.20;;
71937;SDS011;59810;48.800;9.086;2023-07-02T13:19:21;17.07;;;8.60;;
71937;SDS011;59810;48.800;9.086;2023-07-02T13:21:46;18.47;;;9.50;;
71937;SDS011;59810;48.800;9.086;2023-07-02T13:24:11;19.00;;;8.85;;
71937;SDS011;59810;48.800;9.086;2023-07-02T13:26:39;18.13;;;8.93;;
71937;SDS011;59810;48.800;9.086;2023-07-02T13:29:05;19.80;;;9.05;;
71937;SDS011;59810;48.800;9.086;2023-07-02T13:31:30;19.57;;;9.73;;
71937;SDS011;59810;48.800;9.086;2023-07-02T13:34:10;17.80;;;8.90;;
71937;SDS011;59810;48.800;9.086;2023-07-02T13:36:35;15.98;;;8.63;;
71937;SDS011;59810;48.800;9.086;2023-07-02T13:39:01;18.27;;;9.53;;
71937;SDS011;59810;48.800;9.086;2023-07-02T13:41:27;16.20;;;9.15;;
71937;SDS011;59810;48.800;9.086;2023-07-02T13:43:55;19.10;;;9.50;;
71937;SDS011;59810;48.800;9.086;2023-07-02T13:46:21;17.02;;;9.40;;
71937;SDS011;59810;48.800;9.086;2023-07-02T13:48:47;16.73;;;9.23;;
71937;SDS011;59810;48.800;9.086;2023-07-02T13:51:14;19.80;;;10.40;;
71937;SDS011;59810;48.800;9.086;2023-07-02T13:53:40;19.93;;;9.97;;
71937;SDS011;59810;48.800;9.086;2023-07-02T13:56:08;15.85;;;9.00;;
71937;SDS011;59810;48.800;9.086;2023-07-02T14:01:20;15.67;;;8.40;;
71937;SDS011;59810;48.800;9.086;2023-07-02T14:03:46;16.52;;;9.30;;
71937;SDS011;59810;48.800;9.086;2023-07-02T14:06:11;20.60;;;9.50;;
71937;SDS011;59810;48.800;9.086;2023-07-02T14:08:55;19.27;;;9.67;;
71937;SDS011;59810;48.800;9.086;2023-07-02T14:11:21;18.17;;;9.48;;
71937;SDS011;59810;48.800;9.086;2023-07-02T14:13:52;17.95;;;9.50;;
71937;SDS011;59810;48.800;9.086;2023-07-02T14:16:18;19.67;;;10.17;;
71937;SDS011;59810;48.800;9.086;2023-07-02T14:18:51;17.40;;;9.65;;
71937;SDS011;59810;48.800;9.086;2023-07-02T14:21:19;19.70;;;9.90;;
71937;SDS011;59810;48.800;9.086;2023-07-02T14:23:45;15.63;;;10.00;;
71937;SDS011;59810;48.800;9.086;2023-07-02T14:26:10;17.88;;;9.45;;
71937;SDS011;59810;48.800;9.086;2023-07-02T14:28:37;17.00;;;9.63;;
71937;SDS011;59810;48.800;9.086;2023-07-02T14:31:05;16.58;;;9.18;;
71937;SDS011;59810;48.800;9.086;2023-07-02T14:33:32;15.40;;;9.40;;
71937;SDS011;59810;48.800;9.086;2023-07-02T14:36:01;17.27;;;9.35;;
71937;SDS011;59810;48.800;9.086;2023-07-02T14:38:29;17.55;;;9.63;;
71937;SDS011;59810;48.800;9.086;2023-07-02T14:40:55;15.83;;;9.37;;
71937;SDS011;59810;48.800;9.086;2023-07-02T14:43:22;15.55;;;9.65;;
71937;SDS011;59810;48.800;9.086;2023-07-02T14:45:50;15.57;;;9.70;;
71937;SDS011;59810;48.800;9.086;2023-07-02T14:48:18;18.65;;;10.30;;
71937;SDS011;59810;48.800;9.086;2023-07-02T14:50:44;18.27;;;10.47;;
71937;SDS011;59810;48.800;9.086;2023-07-02T14:53:15;15.82;;;9.60;;